Super Jet — IINO — position and weather

sailwx.info

Track history (hours):
 
Tides and Currents Weather Stations Pressure Air Temp Water Temp Dewpoint Dewpoint Depression Visibility Wind Speed Wind Dir Waves Ship Positions

Super Jet

Last reported at 2018-Apr-24 05:58 UTC. Time now 2018-Apr-24 06:57 UTC.
Position N 40°50' E 014°15'.

Length 45 m; draft 1.2 m.

Type: High speed craft. MMSI: 247540000.

Date/timePositionNaut miles runAvg speedWind from/ knotsBaromVisibWave heightAir tempDewpointWater temp
2018-Apr-24 05:58N 40°50' E 014°15'1022.2
2018-Apr-24 05:30N 40°41' E 014°21'3 6.5
2018-Apr-24 05:00N 40°38' E 014°23'0 0.0
2018-Apr-24 04:27N 40°38' E 014°23'0 0.0
2018-Apr-24 04:00N 40°38' E 014°23'0 0.0
2018-Apr-24 03:27N 40°38' E 014°23'0 0.0
2018-Apr-24 02:51N 40°38' E 014°23'0 0.0
2018-Apr-24 02:30N 40°38' E 014°23'0 0.0
2018-Apr-24 02:00N 40°38' E 014°23'0 0.0
2018-Apr-24 01:30N 40°38' E 014°23'0 0.0
2018-Apr-24 01:00N 40°38' E 014°23'0 0.0
2018-Apr-24 00:30N 40°38' E 014°23'0 0.0
2018-Apr-24 00:00N 40°38' E 014°23'0 0.0
2018-Apr-23 23:30N 40°38' E 014°23'0 0.0
2018-Apr-23 23:00N 40°38' E 014°23'0 0.0
2018-Apr-23 22:30N 40°38' E 014°23'0 0.0
2018-Apr-23 21:58N 40°38' E 014°23'0 0.0
2018-Apr-23 21:30N 40°38' E 014°23'0 0.0
2018-Apr-23 21:00N 40°38' E 014°23'0 0.0
2018-Apr-23 20:30N 40°38' E 014°23'0 0.0
2018-Apr-23 20:00N 40°38' E 014°23'0 0.0
2018-Apr-23 19:30N 40°38' E 014°23'0 0.0
2018-Apr-23 19:00N 40°38' E 014°23'0 0.0
2018-Apr-23 18:30N 40°38' E 014°23'0 0.0
2018-Apr-23 18:00N 40°38' E 014°23'0 0.0
2018-Apr-23 17:30N 40°38' E 014°23'1 2.9
2018-Apr-23 17:01N 40°39' E 014°22'1224.0
2018-Apr-23 16:30N 40°50' E 014°15'0 0.3
2018-Apr-23 15:59N 40°50' E 014°15'0 0.8
2018-Apr-23 15:29N 40°50' E 014°16'919.5
2018-Apr-23 15:00N 40°41' E 014°16'813.5
2018-Apr-23 14:26N 40°33' E 014°14'1022.5
2018-Apr-23 14:00N 40°43' E 014°17'7 2.9
2018-Apr-23 11:25N 40°50' E 014°16'923.0
2018-Apr-23 11:01N 40°41' E 014°16'7 4.4
2018-Apr-23 09:24N 40°34' E 014°15'924.4
2018-Apr-23 09:00N 40°43' E 014°16'711.1
2018-Apr-23 08:22N 40°50' E 014°16'821.7
2018-Apr-23 08:00N 40°43' E 014°16'918.1
2018-Apr-23 07:30N 40°33' E 014°14'1020.9
2018-Apr-23 07:01N 40°44' E 014°16'7 7.7
2018-Apr-23 06:09N 40°50' E 014°15'0 0.0
2018-Apr-23 05:59N 40°50' E 014°15'1020.9
2018-Apr-23 05:31N 40°41' E 014°21'4 7.1
2018-Apr-23 05:00N 40°38' E 014°23'0 0.0
2018-Apr-23 04:30N 40°38' E 014°23'0 0.0
2018-Apr-23 04:00N 40°38' E 014°23'0 0.0
2018-Apr-23 03:30N 40°38' E 014°23'0 0.0
2018-Apr-23 03:00N 40°38' E 014°23'0 0.0
2018-Apr-23 02:30N 40°38' E 014°23'0 0.0
2018-Apr-23 02:00N 40°38' E 014°23'0 0.0
2018-Apr-23 01:30N 40°38' E 014°23'0 0.0
2018-Apr-23 01:00N 40°38' E 014°23'0 0.0
2018-Apr-23 00:30N 40°38' E 014°23'0 0.0
2018-Apr-23 00:00N 40°38' E 014°23'0 0.0
2018-Apr-22 23:30N 40°38' E 014°23'0 0.0
2018-Apr-22 23:00N 40°38' E 014°23'0 0.0
2018-Apr-22 22:30N 40°38' E 014°23'0 0.0
2018-Apr-22 22:01N 40°38' E 014°23'0 0.0
2018-Apr-22 21:30N 40°38' E 014°23'0 0.0
2018-Apr-22 21:00N 40°38' E 014°23'0 0.0
2018-Apr-22 20:30N 40°38' E 014°23'0 0.0
2018-Apr-22 20:00N 40°38' E 014°23'0 0.0
2018-Apr-22 19:30N 40°38' E 014°23'0 0.0
2018-Apr-22 19:00N 40°38' E 014°23'0 0.0
2018-Apr-22 18:30N 40°38' E 014°23'0 0.0
2018-Apr-22 18:00N 40°38' E 014°23'0 0.0
2018-Apr-22 17:30N 40°38' E 014°23'0 0.1
2018-Apr-22 17:01N 40°38' E 014°23'1326.1
2018-Apr-22 16:30N 40°50' E 014°16'1 1.1
2018-Apr-22 15:58N 40°50' E 014°15'714.2
2018-Apr-22 15:31N 40°44' E 014°17'11 9.5
2018-Apr-22 14:24N 40°33' E 014°14'1024.3
2018-Apr-22 14:01N 40°43' E 014°17'815.1
2018-Apr-22 13:30N 40°50' E 014°15'0 0.0
2018-Apr-22 12:59N 40°50' E 014°15'0 0.4
2018-Apr-22 12:29N 40°50' E 014°16'1021.8
2018-Apr-22 12:01N 40°40' E 014°16'7 9.5
2018-Apr-22 11:19N 40°33' E 014°14'0 0.0
2018-Apr-22 11:00N 40°33' E 014°14'0 0.1
2018-Apr-22 10:27N 40°33' E 014°14'1022.1
2018-Apr-22 10:00N 40°43' E 014°17'714.2
2018-Apr-22 09:30N 40°50' E 014°15'714.4
2018-Apr-22 09:00N 40°43' E 014°16'1016.3
2018-Apr-22 08:24N 40°33' E 014°14'922.3
2018-Apr-22 08:00N 40°42' E 014°16'815.5
2018-Apr-22 07:29N 40°50' E 014°15'0 0.0
2018-Apr-22 06:57N 40°50' E 014°15'0 0.0
2018-Apr-22 06:29N 40°50' E 014°15'0 0.0
2018-Apr-22 06:00N 40°50' E 014°15'1021.1
2018-Apr-22 05:30N 40°41' E 014°21'3 6.6
2018-Apr-22 05:00N 40°38' E 014°23'0 0.0
2018-Apr-22 04:31N 40°38' E 014°23'0 0.0
2018-Apr-22 04:00N 40°38' E 014°23'0 0.0
2018-Apr-22 03:29N 40°38' E 014°23'0 0.0
2018-Apr-22 03:00N 40°38' E 014°23'0 0.0
2018-Apr-22 02:30N 40°38' E 014°23'0 0.0
2018-Apr-22 02:00N 40°38' E 014°23'0 0.0
2018-Apr-22 01:30N 40°38' E 014°23'0 0.0
2018-Apr-22 01:01N 40°38' E 014°23'0 0.0
2018-Apr-22 00:31N 40°38' E 014°23'0 0.0
2018-Apr-22 00:00N 40°38' E 014°23'0 0.0
2018-Apr-21 23:30N 40°38' E 014°23'0 0.0
2018-Apr-21 23:00N 40°38' E 014°23'0 0.0
2018-Apr-21 22:30N 40°38' E 014°23'0 0.0
2018-Apr-21 22:00N 40°38' E 014°23'0 0.0
2018-Apr-21 21:30N 40°38' E 014°23'0 0.0
2018-Apr-21 21:00N 40°38' E 014°23'0 0.0
2018-Apr-21 20:30N 40°38' E 014°23'0 0.0
2018-Apr-21 20:00N 40°38' E 014°23'0 0.0
2018-Apr-21 19:30N 40°38' E 014°23'0 0.0
2018-Apr-21 19:00N 40°38' E 014°23'0 0.0
2018-Apr-21 18:30N 40°38' E 014°23'0 0.0
2018-Apr-21 18:00N 40°38' E 014°23'0 0.0
2018-Apr-21 17:30N 40°38' E 014°23'0 0.1
2018-Apr-21 17:00N 40°38' E 014°23'1326.5
2018-Apr-21 16:30N 40°50' E 014°16'1 1.2
2018-Apr-21 15:59N 40°50' E 014°15'0 0.1
2018-Apr-21 15:29N 40°50' E 014°15'918.3
2018-Apr-21 15:00N 40°42' E 014°16'710.3
2018-Apr-21 14:19N 40°34' E 014°15'825.8
2018-Apr-21 14:00N 40°42' E 014°17'815.9
2018-Apr-21 13:30N 40°50' E 014°15'0 0.0
2018-Apr-21 13:00N 40°50' E 014°15'0 0.0
2018-Apr-21 12:30N 40°50' E 014°15'1019.9
2018-Apr-21 12:00N 40°40' E 014°16'7 4.6
2018-Apr-21 10:28N 40°33' E 014°14'1021.8
2018-Apr-21 10:01N 40°43' E 014°17'711.2
2018-Apr-21 09:23N 40°50' E 014°15'820.5
2018-Apr-21 09:01N 40°43' E 014°16'918.3
2018-Apr-21 08:30N 40°33' E 014°14'816.7
2018-Apr-21 08:01N 40°41' E 014°17'9 4.3
2018-Apr-21 05:57N 40°50' E 014°15'1022.5
2018-Apr-21 05:30N 40°41' E 014°21'4 7.3
2018-Apr-21 05:01N 40°38' E 014°23'0 0.0
2018-Apr-21 04:26N 40°38' E 014°23'0 0.0
2018-Apr-21 04:00N 40°38' E 014°23'0 0.0
2018-Apr-21 03:30N 40°38' E 014°23'0 0.0
2018-Apr-21 03:00N 40°38' E 014°23'0 0.0
2018-Apr-21 02:31N 40°38' E 014°23'0 0.0
2018-Apr-21 01:56N 40°38' E 014°23'0 0.0
2018-Apr-21 01:31N 40°38' E 014°23'0 0.0
2018-Apr-21 01:01N 40°38' E 014°23'0 0.0
2018-Apr-21 00:30N 40°38' E 014°23'0 0.0
2018-Apr-21 00:00N 40°38' E 014°23'0 0.0
2018-Apr-20 23:30N 40°38' E 014°23'0 0.0
2018-Apr-20 23:00N 40°38' E 014°23'0 0.0
2018-Apr-20 22:30N 40°38' E 014°23'0 0.0
2018-Apr-20 22:00N 40°38' E 014°23'0 0.0
2018-Apr-20 21:30N 40°38' E 014°23'0 0.0
2018-Apr-20 21:00N 40°38' E 014°23'0 0.0
2018-Apr-20 20:30N 40°38' E 014°23'0 0.0
2018-Apr-20 20:00N 40°38' E 014°23'0 0.0
2018-Apr-20 19:30N 40°38' E 014°23'0 0.0
2018-Apr-20 19:00N 40°38' E 014°23'0 0.0
2018-Apr-20 18:30N 40°38' E 014°23'0 0.0
2018-Apr-20 18:00N 40°38' E 014°23'0 0.0
2018-Apr-20 17:30N 40°38' E 014°23'0 0.3
2018-Apr-20 17:01N 40°38' E 014°23'1325.8
2018-Apr-20 16:30N 40°50' E 014°16'1 1.0
2018-Apr-20 15:58N 40°50' E 014°15'2 4.0
2018-Apr-20 15:29N 40°49' E 014°17'1021.9
2018-Apr-20 15:00N 40°39' E 014°16'5 9.2
2018-Apr-20 14:25N 40°33' E 014°14'1023.0
2018-Apr-20 14:00N 40°43' E 014°17'812.8
2018-Apr-20 13:24N 40°50' E 014°15'0 0.0
2018-Apr-20 13:00N 40°50' E 014°15'0 0.1
2018-Apr-20 12:30N 40°50' E 014°15'1020.5
2018-Apr-20 12:00N 40°40' E 014°17'6 3.9
2018-Apr-20 10:24N 40°34' E 014°15'924.3
2018-Apr-20 10:00N 40°43' E 014°17'711.1
2018-Apr-20 09:21N 40°50' E 014°15'719.5
2018-Apr-20 09:01N 40°44' E 014°17'1020.6
2018-Apr-20 08:31N 40°33' E 014°14'816.1
2018-Apr-20 08:01N 40°41' E 014°17'9 7.5
2018-Apr-20 06:48N 40°50' E 014°15'0 0.0
2018-Apr-20 06:14N 40°50' E 014°15'0 0.1
2018-Apr-20 05:59N 40°50' E 014°15'1022.1
2018-Apr-20 05:31N 40°41' E 014°21'3 6.4
2018-Apr-20 05:00N 40°38' E 014°23'0 0.0
2018-Apr-20 04:30N 40°38' E 014°23'0 0.0
2018-Apr-20 04:00N 40°38' E 014°23'0 0.0
2018-Apr-20 03:30N 40°38' E 014°23'0 0.0
2018-Apr-20 03:00N 40°38' E 014°23'0 0.0
2018-Apr-20 02:30N 40°38' E 014°23'0 0.0
2018-Apr-20 02:00N 40°38' E 014°23'0 0.0
2018-Apr-20 01:30N 40°38' E 014°23'0 0.0
2018-Apr-20 01:00N 40°38' E 014°23'0 0.0
2018-Apr-20 00:30N 40°38' E 014°23'0 0.0
2018-Apr-20 00:00N 40°38' E 014°23'0 0.0
2018-Apr-19 23:30N 40°38' E 014°23'0 0.0
2018-Apr-19 23:00N 40°38' E 014°23'0 0.0
2018-Apr-19 22:30N 40°38' E 014°23'0 0.0
2018-Apr-19 22:00N 40°38' E 014°23'0 0.0
2018-Apr-19 21:30N 40°38' E 014°23'0 0.0
2018-Apr-19 21:00N 40°38' E 014°23'0 0.0
2018-Apr-19 20:30N 40°38' E 014°23'0 0.0
2018-Apr-19 20:00N 40°38' E 014°23'0 0.0
2018-Apr-19 19:30N 40°38' E 014°23'0 0.0
2018-Apr-19 19:00N 40°38' E 014°23'0 0.0
2018-Apr-19 18:30N 40°38' E 014°23'0 0.0
2018-Apr-19 18:00N 40°38' E 014°23'0 0.0
2018-Apr-19 17:30N 40°38' E 014°23'1 1.1
2018-Apr-19 17:00N 40°38' E 014°23'1324.7
2018-Apr-19 16:29N 40°50' E 014°16'0 0.3
2018-Apr-19 15:49N 40°50' E 014°15'0 1.3
2018-Apr-19 15:30N 40°50' E 014°16'1019.9
2018-Apr-19 15:01N 40°40' E 014°16'712.5
2018-Apr-19 14:26N 40°33' E 014°14'1023.0
2018-Apr-19 14:01N 40°43' E 014°19'811.5
2018-Apr-19 13:18N 40°50' E 014°15'0 0.0
2018-Apr-19 13:00N 40°50' E 014°15'0 0.0
2018-Apr-19 12:30N 40°50' E 014°15'0 0.0
2018-Apr-19 12:00N 40°50' E 014°15'0 0.0
2018-Apr-19 11:30N 40°50' E 014°15'1020.3
2018-Apr-19 11:00N 40°40' E 014°17'7 5.5
2018-Apr-19 09:42N 40°33' E 014°14'0 0.0
2018-Apr-19 09:30N 40°33' E 014°14'1020.9
2018-Apr-19 09:00N 40°44' E 014°16'711.7
2018-Apr-19 08:26N 40°50' E 014°15'818.6
2018-Apr-19 08:00N 40°42' E 014°17'914.9
2018-Apr-19 07:26N 40°34' E 014°15'1023.7
2018-Apr-19 07:00N 40°44' E 014°17'712.8
2018-Apr-19 06:29N 40°50' E 014°15'0 0.0
2018-Apr-19 06:01N 40°50' E 014°15'1121.1
2018-Apr-19 05:31N 40°41' E 014°22'3 6.3
2018-Apr-19 05:00N 40°38' E 014°23'0 0.0
2018-Apr-19 04:30N 40°38' E 014°23'0 0.0
2018-Apr-19 04:00N 40°38' E 014°23'0 0.0
2018-Apr-19 03:30N 40°38' E 014°23'0 0.0
2018-Apr-19 03:00N 40°38' E 014°23'0 0.0
2018-Apr-19 02:30N 40°38' E 014°23'0 0.0
2018-Apr-19 02:00N 40°38' E 014°23'0 0.0
2018-Apr-19 01:30N 40°38' E 014°23'0 0.0
2018-Apr-19 01:00N 40°38' E 014°23'0 0.0
2018-Apr-19 00:30N 40°38' E 014°23'0 0.0
2018-Apr-19 00:00N 40°38' E 014°23'0 0.0
2018-Apr-18 23:30N 40°38' E 014°23'0 0.0
2018-Apr-18 23:00N 40°38' E 014°23'0 0.0
2018-Apr-18 22:30N 40°38' E 014°23'0 0.0
2018-Apr-18 22:00N 40°38' E 014°23'0 0.0
2018-Apr-18 21:30N 40°38' E 014°23'0 0.0
2018-Apr-18 21:00N 40°38' E 014°23'0 0.0
2018-Apr-18 20:30N 40°38' E 014°23'0 0.0
2018-Apr-18 20:00N 40°38' E 014°23'0 0.0
2018-Apr-18 19:30N 40°38' E 014°23'0 0.0
2018-Apr-18 19:00N 40°38' E 014°23'0 0.0
2018-Apr-18 18:30N 40°38' E 014°23'0 0.0
2018-Apr-18 18:00N 40°38' E 014°23'0 0.0
2018-Apr-18 17:30N 40°38' E 014°23'1 2.0
2018-Apr-18 17:00N 40°39' E 014°23'1323.8
2018-Apr-18 16:29N 40°50' E 014°15'0 0.1
2018-Apr-18 15:44N 40°50' E 014°15'1 4.1
2018-Apr-18 15:30N 40°50' E 014°17'1121.9
2018-Apr-18 15:01N 40°39' E 014°16'610.8
2018-Apr-18 14:27N 40°33' E 014°14'1023.2
2018-Apr-18 14:01N 40°43' E 014°18'7 9.8
2018-Apr-18 13:16N 40°50' E 014°15'0 0.0
2018-Apr-18 13:00N 40°50' E 014°15'0 0.0
2018-Apr-18 12:30N 40°50' E 014°15'0 0.0
2018-Apr-18 12:00N 40°50' E 014°15'0 0.0
2018-Apr-18 11:29N 40°50' E 014°15'1020.5
2018-Apr-18 11:01N 40°40' E 014°16'714.1
2018-Apr-18 10:30N 40°33' E 014°14'0 0.0
2018-Apr-18 09:52N 40°33' E 014°14'0 0.0
2018-Apr-18 09:30N 40°33' E 014°14'918.2
2018-Apr-18 09:00N 40°42' E 014°17'812.5
2018-Apr-18 08:22N 40°50' E 014°16'821.6
2018-Apr-18 08:00N 40°42' E 014°16'917.4
2018-Apr-18 07:30N 40°33' E 014°14'1020.8
2018-Apr-18 07:00N 40°43' E 014°18'714.7
2018-Apr-18 06:30N 40°50' E 014°15'0 0.0
2018-Apr-18 06:00N 40°50' E 014°15'1122.1
2018-Apr-18 05:31N 40°41' E 014°22'3 5.7
2018-Apr-18 05:00N 40°38' E 014°23'0 0.0
2018-Apr-18 04:30N 40°38' E 014°23'0 0.0
2018-Apr-18 04:00N 40°38' E 014°23'0 0.0
2018-Apr-18 03:31N 40°38' E 014°23'0 0.0
2018-Apr-18 03:00N 40°38' E 014°23'0 0.0
2018-Apr-18 02:30N 40°38' E 014°23'0 0.0
2018-Apr-18 02:00N 40°38' E 014°23'0 0.0
2018-Apr-18 01:30N 40°38' E 014°23'0 0.0
2018-Apr-18 01:00N 40°38' E 014°23'0 0.0
2018-Apr-18 00:30N 40°38' E 014°23'0 0.0
2018-Apr-18 00:00N 40°38' E 014°23'0 0.0
2018-Apr-17 23:30N 40°38' E 014°23'0 0.0
2018-Apr-17 23:00N 40°38' E 014°23'0 0.0
2018-Apr-17 22:30N 40°38' E 014°23'0 0.0
2018-Apr-17 21:56N 40°38' E 014°23'0 0.0
2018-Apr-17 21:30N 40°38' E 014°23'0 0.0
2018-Apr-17 21:00N 40°38' E 014°23'0 0.0
2018-Apr-17 20:30N 40°38' E 014°23'0 0.0
2018-Apr-17 20:00N 40°38' E 014°23'0 0.0
2018-Apr-17 19:30N 40°38' E 014°23'0 0.0
2018-Apr-17 19:00N 40°38' E 014°23'0 0.0
2018-Apr-17 18:31N 40°38' E 014°23'0 0.0
2018-Apr-17 18:01N 40°38' E 014°23'0 0.0
2018-Apr-17 17:30N 40°38' E 014°23'1 2.7
2018-Apr-17 17:01N 40°39' E 014°22'1222.8
2018-Apr-17 16:28N 40°50' E 014°15'0 0.2
2018-Apr-17 16:00N 40°50' E 014°15'1 1.4
2018-Apr-17 15:30N 40°50' E 014°16'1020.6
2018-Apr-17 15:00N 40°40' E 014°17'711.8
2018-Apr-17 14:27N 40°33' E 014°14'1022.7
2018-Apr-17 14:00N 40°43' E 014°19'816.1
2018-Apr-17 13:30N 40°50' E 014°15'0 0.0
2018-Apr-17 12:59N 40°50' E 014°15'1 2.8
2018-Apr-17 12:30N 40°50' E 014°17'1325.3
2018-Apr-17 12:01N 40°37' E 014°16'4 7.7
2018-Apr-17 11:30N 40°33' E 014°14'0 0.0
2018-Apr-17 10:27N 40°33' E 014°14'1022.4
2018-Apr-17 10:01N 40°43' E 014°19'815.8
2018-Apr-17 09:30N 40°50' E 014°15'816.6
2018-Apr-17 09:01N 40°42' E 014°17'917.6
2018-Apr-17 08:30N 40°33' E 014°14'918.6
2018-Apr-17 08:01N 40°42' E 014°18'9 9.0
2018-Apr-17 07:03N 40°50' E 014°15'0 0.0
2018-Apr-17 06:50N 40°50' E 014°15'0 0.0
2018-Apr-17 06:29N 40°50' E 014°15'0 0.2
2018-Apr-17 05:58N 40°50' E 014°15'1123.4
2018-Apr-17 05:31N 40°41' E 014°22'3 5.8
2018-Apr-17 05:00N 40°38' E 014°23'0 0.0
2018-Apr-17 04:30N 40°38' E 014°23'0 0.0
2018-Apr-17 04:00N 40°38' E 014°23'0 0.0
2018-Apr-17 03:30N 40°38' E 014°23'0 0.0
2018-Apr-17 03:00N 40°38' E 014°23'0 0.0
2018-Apr-17 02:30N 40°38' E 014°23'0 0.0
2018-Apr-17 02:00N 40°38' E 014°23'0 0.0
2018-Apr-17 01:31N 40°38' E 014°23'0 0.0
2018-Apr-17 01:00N 40°38' E 014°23'0 0.0
2018-Apr-17 00:30N 40°38' E 014°23'0 0.0
2018-Apr-17 00:00N 40°38' E 014°23'0 0.0
2018-Apr-16 23:30N 40°38' E 014°23'0 0.0
2018-Apr-16 23:00N 40°38' E 014°23'0 0.0
2018-Apr-16 22:30N 40°38' E 014°23'0 0.0
2018-Apr-16 22:00N 40°38' E 014°23'0 0.0
2018-Apr-16 21:30N 40°38' E 014°23'0 0.0
2018-Apr-16 21:00N 40°38' E 014°23'0 0.0
2018-Apr-16 20:30N 40°38' E 014°23'0 0.0
2018-Apr-16 20:00N 40°38' E 014°23'0 0.0
2018-Apr-16 19:30N 40°38' E 014°23'0 0.0
2018-Apr-16 19:00N 40°38' E 014°23'0 0.0
2018-Apr-16 18:30N 40°38' E 014°23'0 0.0
2018-Apr-16 18:00N 40°38' E 014°23'0 0.0
2018-Apr-16 17:30N 40°38' E 014°23'1 1.4
2018-Apr-16 17:01N 40°39' E 014°23'1324.3
2018-Apr-16 16:29N 40°50' E 014°16'0 0.3
2018-Apr-16 15:28N 40°50' E 014°16'920.8
2018-Apr-16 15:00N 40°41' E 014°17'712.4
2018-Apr-16 14:25N 40°33' E 014°15'1023.5
2018-Apr-16 14:00N 40°43' E 014°16'7 6.6
2018-Apr-16 12:54N 40°50' E 014°15'0 1.0
2018-Apr-16 12:28N 40°50' E 014°16'1021.5
2018-Apr-16 12:00N 40°40' E 014°16'713.8
2018-Apr-16 11:30N 40°33' E 014°14'0 0.0
2018-Apr-16 11:00N 40°33' E 014°14'0 0.0
2018-Apr-16 10:30N 40°33' E 014°14'918.5
2018-Apr-16 10:00N 40°43' E 014°16'811.5
2018-Apr-16 09:21N 40°50' E 014°16'721.3
2018-Apr-16 09:01N 40°43' E 014°16'1019.0
2018-Apr-16 08:30N 40°33' E 014°14'816.8
2018-Apr-16 08:01N 40°42' E 014°16'914.5
2018-Apr-16 07:25N 40°50' E 014°15'0 0.0
2018-Apr-16 06:58N 40°50' E 014°15'0 0.0
2018-Apr-16 06:28N 40°50' E 014°15'0 0.0
2018-Apr-16 06:00N 40°50' E 014°15'1020.3
2018-Apr-16 05:31N 40°41' E 014°21'3 6.9
2018-Apr-16 05:00N 40°38' E 014°23'0 0.0
2018-Apr-16 04:30N 40°38' E 014°23'0 0.0
2018-Apr-16 04:00N 40°38' E 014°23'0 0.0
2018-Apr-16 03:30N 40°38' E 014°23'0 0.0
2018-Apr-16 03:00N 40°38' E 014°23'0 0.0
2018-Apr-16 02:30N 40°38' E 014°23'0 0.0
2018-Apr-16 02:00N 40°38' E 014°23'0 0.0
2018-Apr-16 01:30N 40°38' E 014°23'0 0.0
2018-Apr-16 01:00N 40°38' E 014°23'0 0.0
2018-Apr-16 00:30N 40°38' E 014°23'0 0.0
2018-Apr-16 00:00N 40°38' E 014°23'0 0.0
2018-Apr-15 23:30N 40°38' E 014°23'0 0.0
2018-Apr-15 23:00N 40°38' E 014°23'0 0.0
2018-Apr-15 22:30N 40°38' E 014°23'0 0.0
2018-Apr-15 22:00N 40°38' E 014°23'0 0.0
2018-Apr-15 21:30N 40°38' E 014°23'0 0.0
2018-Apr-15 21:00N 40°38' E 014°23'0 0.0
2018-Apr-15 20:30N 40°38' E 014°23'0 0.0
2018-Apr-15 20:00N 40°38' E 014°23'0 0.0
2018-Apr-15 19:30N 40°38' E 014°23'0 0.0
2018-Apr-15 19:00N 40°38' E 014°23'0 0.0
2018-Apr-15 18:30N 40°38' E 014°23'0 0.0
2018-Apr-15 18:00N 40°38' E 014°23'0 0.0
2018-Apr-15 17:30N 40°38' E 014°23'0 0.3
2018-Apr-15 17:01N 40°38' E 014°23'1326.1
2018-Apr-15 16:30N 40°50' E 014°16'1 1.5
2018-Apr-15 15:59N 40°50' E 014°15'1 0.9
2018-Apr-15 15:23N 40°50' E 014°16'719.4
2018-Apr-15 15:00N 40°43' E 014°16'913.0
2018-Apr-15 14:17N 40°33' E 014°14'0 0.0
2018-Apr-15 13:54N 40°33' E 014°14'1 2.6
2018-Apr-15 13:31N 40°34' E 014°15'1325.2
2018-Apr-15 13:00N 40°47' E 014°17'3 6.7
2018-Apr-15 12:30N 40°50' E 014°16'1223.6
2018-Apr-15 12:00N 40°38' E 014°16'5 8.8
2018-Apr-15 11:27N 40°33' E 014°14'0 0.0
2018-Apr-15 10:58N 40°33' E 014°14'0 0.0
2018-Apr-15 10:30N 40°33' E 014°14'0 0.0
2018-Apr-15 09:56N 40°33' E 014°14'0 0.4
2018-Apr-15 09:30N 40°33' E 014°15'1122.4
2018-Apr-15 09:00N 40°44' E 014°17'612.5
2018-Apr-15 08:30N 40°50' E 014°15'1020.2
2018-Apr-15 08:00N 40°40' E 014°17'714.0
2018-Apr-15 07:30N 40°33' E 014°15'918.4
2018-Apr-15 07:01N 40°42' E 014°17'815.2
2018-Apr-15 06:29N 40°50' E 014°15'0 0.0
2018-Apr-15 06:00N 40°50' E 014°15'1021.2
2018-Apr-15 05:31N 40°41' E 014°21'3 6.5
2018-Apr-15 05:00N 40°38' E 014°23'0 0.0
2018-Apr-15 04:30N 40°38' E 014°23'0 0.0
2018-Apr-15 04:00N 40°38' E 014°23'0 0.0
2018-Apr-15 03:30N 40°38' E 014°23'0 0.0
2018-Apr-15 03:00N 40°38' E 014°23'0 0.0
2018-Apr-15 02:30N 40°38' E 014°23'0 0.0
2018-Apr-15 02:00N 40°38' E 014°23'0 0.0
2018-Apr-15 01:30N 40°38' E 014°23'0 0.0
2018-Apr-15 01:00N 40°38' E 014°23'0 0.0
2018-Apr-15 00:30N 40°38' E 014°23'0 0.0
2018-Apr-15 00:00N 40°38' E 014°23'0 0.0
2018-Apr-14 23:30N 40°38' E 014°23'0 0.0
2018-Apr-14 23:00N 40°38' E 014°23'0 0.0
2018-Apr-14 22:29N 40°38' E 014°23'0 0.0
2018-Apr-14 22:00N 40°38' E 014°23'0 0.0
2018-Apr-14 21:30N 40°38' E 014°23'0 0.0
2018-Apr-14 21:00N 40°38' E 014°23'0 0.0
2018-Apr-14 20:30N 40°38' E 014°23'0 0.0
2018-Apr-14 20:00N 40°38' E 014°23'0 0.0
2018-Apr-14 19:30N 40°38' E 014°23'0 0.0
2018-Apr-14 19:00N 40°38' E 014°23'0 0.0
2018-Apr-14 18:30N 40°38' E 014°23'0 0.0
2018-Apr-14 18:00N 40°38' E 014°23'0 0.0
2018-Apr-14 17:30N 40°38' E 014°23'2 3.6
2018-Apr-14 17:01N 40°40' E 014°22'1222.7
2018-Apr-14 16:29N 40°50' E 014°15'0 0.1
2018-Apr-14 15:58N 40°50' E 014°15'0 0.3
2018-Apr-14 15:30N 40°50' E 014°15'918.2
2018-Apr-14 15:01N 40°41' E 014°17'813.6
2018-Apr-14 14:25N 40°33' E 014°14'1023.3
2018-Apr-14 14:01N 40°43' E 014°16'714.3
2018-Apr-14 13:29N 40°50' E 014°15'0 0.0
2018-Apr-14 12:56N 40°50' E 014°15'0 0.2
2018-Apr-14 12:30N 40°50' E 014°15'1020.2
2018-Apr-14 12:01N 40°40' E 014°16'7 4.7
2018-Apr-14 10:30N 40°33' E 014°14'1121.5
2018-Apr-14 10:00N 40°44' E 014°17'611.3
2018-Apr-14 09:27N 40°50' E 014°15'817.5
2018-Apr-14 09:00N 40°43' E 014°17'7 4.4
2018-Apr-14 07:18N 40°35' E 014°16'725.0
2018-Apr-14 07:00N 40°43' E 014°17'814.8
2018-Apr-14 06:30N 40°50' E 014°15'0 0.0
2018-Apr-14 06:00N 40°50' E 014°15'  
Track history (hours):
 
Tides and Currents Weather Stations Pressure Air Temp Water Temp Dewpoint Dewpoint Depression Visibility Wind Speed Wind Dir Waves Ship Positions

Super Jet

Last reported at 2018-Apr-24 05:58 UTC. Time now 2018-Apr-24 06:57 UTC.
Position N 40°50' E 014°15'.

Length 45 m; draft 1.2 m.

Type: High speed craft. MMSI: 247540000.

Date/timePositionNaut miles runAvg speedWind from/ knotsBaromVisibWave heightAir tempDewpointWater temp
2018-Apr-24 05:58N 40°50' E 014°15'1022.2
2018-Apr-24 05:30N 40°41' E 014°21'3 6.5
2018-Apr-24 05:00N 40°38' E 014°23'0 0.0
2018-Apr-24 04:27N 40°38' E 014°23'0 0.0
2018-Apr-24 04:00N 40°38' E 014°23'0 0.0
2018-Apr-24 03:27N 40°38' E 014°23'0 0.0
2018-Apr-24 02:51N 40°38' E 014°23'0 0.0
2018-Apr-24 02:30N 40°38' E 014°23'0 0.0
2018-Apr-24 02:00N 40°38' E 014°23'0 0.0
2018-Apr-24 01:30N 40°38' E 014°23'0 0.0
2018-Apr-24 01:00N 40°38' E 014°23'0 0.0
2018-Apr-24 00:30N 40°38' E 014°23'0 0.0
2018-Apr-24 00:00N 40°38' E 014°23'0 0.0
2018-Apr-23 23:30N 40°38' E 014°23'0 0.0
2018-Apr-23 23:00N 40°38' E 014°23'0 0.0
2018-Apr-23 22:30N 40°38' E 014°23'0 0.0
2018-Apr-23 21:58N 40°38' E 014°23'0 0.0
2018-Apr-23 21:30N 40°38' E 014°23'0 0.0
2018-Apr-23 21:00N 40°38' E 014°23'0 0.0
2018-Apr-23 20:30N 40°38' E 014°23'0 0.0
2018-Apr-23 20:00N 40°38' E 014°23'0 0.0
2018-Apr-23 19:30N 40°38' E 014°23'0 0.0
2018-Apr-23 19:00N 40°38' E 014°23'0 0.0
2018-Apr-23 18:30N 40°38' E 014°23'0 0.0
2018-Apr-23 18:00N 40°38' E 014°23'0 0.0
2018-Apr-23 17:30N 40°38' E 014°23'1 2.9
2018-Apr-23 17:01N 40°39' E 014°22'1224.0
2018-Apr-23 16:30N 40°50' E 014°15'0 0.3
2018-Apr-23 15:59N 40°50' E 014°15'0 0.8
2018-Apr-23 15:29N 40°50' E 014°16'919.5
2018-Apr-23 15:00N 40°41' E 014°16'813.5
2018-Apr-23 14:26N 40°33' E 014°14'1022.5
2018-Apr-23 14:00N 40°43' E 014°17'7 2.9
2018-Apr-23 11:25N 40°50' E 014°16'923.0
2018-Apr-23 11:01N 40°41' E 014°16'7 4.4
2018-Apr-23 09:24N 40°34' E 014°15'924.4
2018-Apr-23 09:00N 40°43' E 014°16'711.1
2018-Apr-23 08:22N 40°50' E 014°16'821.7
2018-Apr-23 08:00N 40°43' E 014°16'918.1
2018-Apr-23 07:30N 40°33' E 014°14'1020.9
2018-Apr-23 07:01N 40°44' E 014°16'7 7.7
2018-Apr-23 06:09N 40°50' E 014°15'0 0.0
2018-Apr-23 05:59N 40°50' E 014°15'1020.9
2018-Apr-23 05:31N 40°41' E 014°21'4 7.1
2018-Apr-23 05:00N 40°38' E 014°23'0 0.0
2018-Apr-23 04:30N 40°38' E 014°23'0 0.0
2018-Apr-23 04:00N 40°38' E 014°23'0 0.0
2018-Apr-23 03:30N 40°38' E 014°23'0 0.0
2018-Apr-23 03:00N 40°38' E 014°23'0 0.0
2018-Apr-23 02:30N 40°38' E 014°23'0 0.0
2018-Apr-23 02:00N 40°38' E 014°23'0 0.0
2018-Apr-23 01:30N 40°38' E 014°23'0 0.0
2018-Apr-23 01:00N 40°38' E 014°23'0 0.0
2018-Apr-23 00:30N 40°38' E 014°23'0 0.0
2018-Apr-23 00:00N 40°38' E 014°23'0 0.0
2018-Apr-22 23:30N 40°38' E 014°23'0 0.0
2018-Apr-22 23:00N 40°38' E 014°23'0 0.0
2018-Apr-22 22:30N 40°38' E 014°23'0 0.0
2018-Apr-22 22:01N 40°38' E 014°23'0 0.0
2018-Apr-22 21:30N 40°38' E 014°23'0 0.0
2018-Apr-22 21:00N 40°38' E 014°23'0 0.0
2018-Apr-22 20:30N 40°38' E 014°23'0 0.0
2018-Apr-22 20:00N 40°38' E 014°23'0 0.0
2018-Apr-22 19:30N 40°38' E 014°23'0 0.0
2018-Apr-22 19:00N 40°38' E 014°23'0 0.0
2018-Apr-22 18:30N 40°38' E 014°23'0 0.0
2018-Apr-22 18:00N 40°38' E 014°23'0 0.0
2018-Apr-22 17:30N 40°38' E 014°23'0 0.1
2018-Apr-22 17:01N 40°38' E 014°23'1326.1
2018-Apr-22 16:30N 40°50' E 014°16'1 1.1
2018-Apr-22 15:58N 40°50' E 014°15'714.2
2018-Apr-22 15:31N 40°44' E 014°17'11 9.5
2018-Apr-22 14:24N 40°33' E 014°14'1024.3
2018-Apr-22 14:01N 40°43' E 014°17'815.1
2018-Apr-22 13:30N 40°50' E 014°15'0 0.0
2018-Apr-22 12:59N 40°50' E 014°15'0 0.4
2018-Apr-22 12:29N 40°50' E 014°16'1021.8
2018-Apr-22 12:01N 40°40' E 014°16'7 9.5
2018-Apr-22 11:19N 40°33' E 014°14'0 0.0
2018-Apr-22 11:00N 40°33' E 014°14'0 0.1
2018-Apr-22 10:27N 40°33' E 014°14'1022.1
2018-Apr-22 10:00N 40°43' E 014°17'714.2
2018-Apr-22 09:30N 40°50' E 014°15'714.4
2018-Apr-22 09:00N 40°43' E 014°16'1016.3
2018-Apr-22 08:24N 40°33' E 014°14'922.3
2018-Apr-22 08:00N 40°42' E 014°16'815.5
2018-Apr-22 07:29N 40°50' E 014°15'0 0.0
2018-Apr-22 06:57N 40°50' E 014°15'0 0.0
2018-Apr-22 06:29N 40°50' E 014°15'0 0.0
2018-Apr-22 06:00N 40°50' E 014°15'1021.1
2018-Apr-22 05:30N 40°41' E 014°21'3 6.6
2018-Apr-22 05:00N 40°38' E 014°23'0 0.0
2018-Apr-22 04:31N 40°38' E 014°23'0 0.0
2018-Apr-22 04:00N 40°38' E 014°23'0 0.0
2018-Apr-22 03:29N 40°38' E 014°23'0 0.0
2018-Apr-22 03:00N 40°38' E 014°23'0 0.0
2018-Apr-22 02:30N 40°38' E 014°23'0 0.0
2018-Apr-22 02:00N 40°38' E 014°23'0 0.0
2018-Apr-22 01:30N 40°38' E 014°23'0 0.0
2018-Apr-22 01:01N 40°38' E 014°23'0 0.0
2018-Apr-22 00:31N 40°38' E 014°23'0 0.0
2018-Apr-22 00:00N 40°38' E 014°23'0 0.0
2018-Apr-21 23:30N 40°38' E 014°23'0 0.0
2018-Apr-21 23:00N 40°38' E 014°23'0 0.0
2018-Apr-21 22:30N 40°38' E 014°23'0 0.0
2018-Apr-21 22:00N 40°38' E 014°23'0 0.0
2018-Apr-21 21:30N 40°38' E 014°23'0 0.0
2018-Apr-21 21:00N 40°38' E 014°23'0 0.0
2018-Apr-21 20:30N 40°38' E 014°23'0 0.0
2018-Apr-21 20:00N 40°38' E 014°23'0 0.0
2018-Apr-21 19:30N 40°38' E 014°23'0 0.0
2018-Apr-21 19:00N 40°38' E 014°23'0 0.0
2018-Apr-21 18:30N 40°38' E 014°23'0 0.0
2018-Apr-21 18:00N 40°38' E 014°23'0 0.0
2018-Apr-21 17:30N 40°38' E 014°23'0 0.1
2018-Apr-21 17:00N 40°38' E 014°23'1326.5
2018-Apr-21 16:30N 40°50' E 014°16'1 1.2
2018-Apr-21 15:59N 40°50' E 014°15'0 0.1
2018-Apr-21 15:29N 40°50' E 014°15'918.3
2018-Apr-21 15:00N 40°42' E 014°16'710.3
2018-Apr-21 14:19N 40°34' E 014°15'825.8
2018-Apr-21 14:00N 40°42' E 014°17'815.9
2018-Apr-21 13:30N 40°50' E 014°15'0 0.0
2018-Apr-21 13:00N 40°50' E 014°15'0 0.0
2018-Apr-21 12:30N 40°50' E 014°15'1019.9
2018-Apr-21 12:00N 40°40' E 014°16'7 4.6
2018-Apr-21 10:28N 40°33' E 014°14'1021.8
2018-Apr-21 10:01N 40°43' E 014°17'711.2
2018-Apr-21 09:23N 40°50' E 014°15'820.5
2018-Apr-21 09:01N 40°43' E 014°16'918.3
2018-Apr-21 08:30N 40°33' E 014°14'816.7
2018-Apr-21 08:01N 40°41' E 014°17'9 4.3
2018-Apr-21 05:57N 40°50' E 014°15'1022.5
2018-Apr-21 05:30N 40°41' E 014°21'4 7.3
2018-Apr-21 05:01N 40°38' E 014°23'0 0.0
2018-Apr-21 04:26N 40°38' E 014°23'0 0.0
2018-Apr-21 04:00N 40°38' E 014°23'0 0.0
2018-Apr-21 03:30N 40°38' E 014°23'0 0.0
2018-Apr-21 03:00N 40°38' E 014°23'0 0.0
2018-Apr-21 02:31N 40°38' E 014°23'0 0.0
2018-Apr-21 01:56N 40°38' E 014°23'0 0.0
2018-Apr-21 01:31N 40°38' E 014°23'0 0.0
2018-Apr-21 01:01N 40°38' E 014°23'0 0.0
2018-Apr-21 00:30N 40°38' E 014°23'0 0.0
2018-Apr-21 00:00N 40°38' E 014°23'0 0.0
2018-Apr-20 23:30N 40°38' E 014°23'0 0.0
2018-Apr-20 23:00N 40°38' E 014°23'0 0.0
2018-Apr-20 22:30N 40°38' E 014°23'0 0.0
2018-Apr-20 22:00N 40°38' E 014°23'0 0.0
2018-Apr-20 21:30N 40°38' E 014°23'0 0.0
2018-Apr-20 21:00N 40°38' E 014°23'0 0.0
2018-Apr-20 20:30N 40°38' E 014°23'0 0.0
2018-Apr-20 20:00N 40°38' E 014°23'0 0.0
2018-Apr-20 19:30N 40°38' E 014°23'0 0.0
2018-Apr-20 19:00N 40°38' E 014°23'0 0.0
2018-Apr-20 18:30N 40°38' E 014°23'0 0.0
2018-Apr-20 18:00N 40°38' E 014°23'0 0.0
2018-Apr-20 17:30N 40°38' E 014°23'0 0.3
2018-Apr-20 17:01N 40°38' E 014°23'1325.8
2018-Apr-20 16:30N 40°50' E 014°16'1 1.0
2018-Apr-20 15:58N 40°50' E 014°15'2 4.0
2018-Apr-20 15:29N 40°49' E 014°17'1021.9
2018-Apr-20 15:00N 40°39' E 014°16'5 9.2
2018-Apr-20 14:25N 40°33' E 014°14'1023.0
2018-Apr-20 14:00N 40°43' E 014°17'812.8
2018-Apr-20 13:24N 40°50' E 014°15'0 0.0
2018-Apr-20 13:00N 40°50' E 014°15'0 0.1
2018-Apr-20 12:30N 40°50' E 014°15'1020.5
2018-Apr-20 12:00N 40°40' E 014°17'6 3.9
2018-Apr-20 10:24N 40°34' E 014°15'924.3
2018-Apr-20 10:00N 40°43' E 014°17'711.1
2018-Apr-20 09:21N 40°50' E 014°15'719.5
2018-Apr-20 09:01N 40°44' E 014°17'1020.6
2018-Apr-20 08:31N 40°33' E 014°14'816.1
2018-Apr-20 08:01N 40°41' E 014°17'9 7.5
2018-Apr-20 06:48N 40°50' E 014°15'0 0.0
2018-Apr-20 06:14N 40°50' E 014°15'0 0.1
2018-Apr-20 05:59N 40°50' E 014°15'1022.1
2018-Apr-20 05:31N 40°41' E 014°21'3 6.4
2018-Apr-20 05:00N 40°38' E 014°23'0 0.0
2018-Apr-20 04:30N 40°38' E 014°23'0 0.0
2018-Apr-20 04:00N 40°38' E 014°23'0 0.0
2018-Apr-20 03:30N 40°38' E 014°23'0 0.0
2018-Apr-20 03:00N 40°38' E 014°23'0 0.0
2018-Apr-20 02:30N 40°38' E 014°23'0 0.0
2018-Apr-20 02:00N 40°38' E 014°23'0 0.0
2018-Apr-20 01:30N 40°38' E 014°23'0 0.0
2018-Apr-20 01:00N 40°38' E 014°23'0 0.0
2018-Apr-20 00:30N 40°38' E 014°23'0 0.0
2018-Apr-20 00:00N 40°38' E 014°23'0 0.0
2018-Apr-19 23:30N 40°38' E 014°23'0 0.0
2018-Apr-19 23:00N 40°38' E 014°23'0 0.0
2018-Apr-19 22:30N 40°38' E 014°23'0 0.0
2018-Apr-19 22:00N 40°38' E 014°23'0 0.0
2018-Apr-19 21:30N 40°38' E 014°23'0 0.0
2018-Apr-19 21:00N 40°38' E 014°23'0 0.0
2018-Apr-19 20:30N 40°38' E 014°23'0 0.0
2018-Apr-19 20:00N 40°38' E 014°23'0 0.0
2018-Apr-19 19:30N 40°38' E 014°23'0 0.0
2018-Apr-19 19:00N 40°38' E 014°23'0 0.0
2018-Apr-19 18:30N 40°38' E 014°23'0 0.0
2018-Apr-19 18:00N 40°38' E 014°23'0 0.0
2018-Apr-19 17:30N 40°38' E 014°23'1 1.1
2018-Apr-19 17:00N 40°38' E 014°23'1324.7
2018-Apr-19 16:29N 40°50' E 014°16'0 0.3
2018-Apr-19 15:49N 40°50' E 014°15'0 1.3
2018-Apr-19 15:30N 40°50' E 014°16'1019.9
2018-Apr-19 15:01N 40°40' E 014°16'712.5
2018-Apr-19 14:26N 40°33' E 014°14'1023.0
2018-Apr-19 14:01N 40°43' E 014°19'811.5
2018-Apr-19 13:18N 40°50' E 014°15'0 0.0
2018-Apr-19 13:00N 40°50' E 014°15'0 0.0
2018-Apr-19 12:30N 40°50' E 014°15'0 0.0
2018-Apr-19 12:00N 40°50' E 014°15'0 0.0
2018-Apr-19 11:30N 40°50' E 014°15'1020.3
2018-Apr-19 11:00N 40°40' E 014°17'7 5.5
2018-Apr-19 09:42N 40°33' E 014°14'0 0.0
2018-Apr-19 09:30N 40°33' E 014°14'1020.9
2018-Apr-19 09:00N 40°44' E 014°16'711.7
2018-Apr-19 08:26N 40°50' E 014°15'818.6
2018-Apr-19 08:00N 40°42' E 014°17'914.9
2018-Apr-19 07:26N 40°34' E 014°15'1023.7
2018-Apr-19 07:00N 40°44' E 014°17'712.8
2018-Apr-19 06:29N 40°50' E 014°15'0 0.0
2018-Apr-19 06:01N 40°50' E 014°15'1121.1
2018-Apr-19 05:31N 40°41' E 014°22'3 6.3
2018-Apr-19 05:00N 40°38' E 014°23'0 0.0
2018-Apr-19 04:30N 40°38' E 014°23'0 0.0
2018-Apr-19 04:00N 40°38' E 014°23'0 0.0
2018-Apr-19 03:30N 40°38' E 014°23'0 0.0
2018-Apr-19 03:00N 40°38' E 014°23'0 0.0
2018-Apr-19 02:30N 40°38' E 014°23'0 0.0
2018-Apr-19 02:00N 40°38' E 014°23'0 0.0
2018-Apr-19 01:30N 40°38' E 014°23'0 0.0
2018-Apr-19 01:00N 40°38' E 014°23'0 0.0
2018-Apr-19 00:30N 40°38' E 014°23'0 0.0
2018-Apr-19 00:00N 40°38' E 014°23'0 0.0
2018-Apr-18 23:30N 40°38' E 014°23'0 0.0
2018-Apr-18 23:00N 40°38' E 014°23'0 0.0
2018-Apr-18 22:30N 40°38' E 014°23'0 0.0
2018-Apr-18 22:00N 40°38' E 014°23'0 0.0
2018-Apr-18 21:30N 40°38' E 014°23'0 0.0
2018-Apr-18 21:00N 40°38' E 014°23'0 0.0
2018-Apr-18 20:30N 40°38' E 014°23'0 0.0
2018-Apr-18 20:00N 40°38' E 014°23'0 0.0
2018-Apr-18 19:30N 40°38' E 014°23'0 0.0
2018-Apr-18 19:00N 40°38' E 014°23'0 0.0
2018-Apr-18 18:30N 40°38' E 014°23'0 0.0
2018-Apr-18 18:00N 40°38' E 014°23'0 0.0
2018-Apr-18 17:30N 40°38' E 014°23'1 2.0
2018-Apr-18 17:00N 40°39' E 014°23'1323.8
2018-Apr-18 16:29N 40°50' E 014°15'0 0.1
2018-Apr-18 15:44N 40°50' E 014°15'1 4.1
2018-Apr-18 15:30N 40°50' E 014°17'1121.9
2018-Apr-18 15:01N 40°39' E 014°16'610.8
2018-Apr-18 14:27N 40°33' E 014°14'1023.2
2018-Apr-18 14:01N 40°43' E 014°18'7 9.8
2018-Apr-18 13:16N 40°50' E 014°15'0 0.0
2018-Apr-18 13:00N 40°50' E 014°15'0 0.0
2018-Apr-18 12:30N 40°50' E 014°15'0 0.0
2018-Apr-18 12:00N 40°50' E 014°15'0 0.0
2018-Apr-18 11:29N 40°50' E 014°15'1020.5
2018-Apr-18 11:01N 40°40' E 014°16'714.1
2018-Apr-18 10:30N 40°33' E 014°14'0 0.0
2018-Apr-18 09:52N 40°33' E 014°14'0 0.0
2018-Apr-18 09:30N 40°33' E 014°14'918.2
2018-Apr-18 09:00N 40°42' E 014°17'812.5
2018-Apr-18 08:22N 40°50' E 014°16'821.6
2018-Apr-18 08:00N 40°42' E 014°16'917.4
2018-Apr-18 07:30N 40°33' E 014°14'1020.8
2018-Apr-18 07:00N 40°43' E 014°18'714.7
2018-Apr-18 06:30N 40°50' E 014°15'0 0.0
2018-Apr-18 06:00N 40°50' E 014°15'1122.1
2018-Apr-18 05:31N 40°41' E 014°22'3 5.7
2018-Apr-18 05:00N 40°38' E 014°23'0 0.0
2018-Apr-18 04:30N 40°38' E 014°23'0 0.0
2018-Apr-18 04:00N 40°38' E 014°23'0 0.0
2018-Apr-18 03:31N 40°38' E 014°23'0 0.0
2018-Apr-18 03:00N 40°38' E 014°23'0 0.0
2018-Apr-18 02:30N 40°38' E 014°23'0 0.0
2018-Apr-18 02:00N 40°38' E 014°23'0 0.0
2018-Apr-18 01:30N 40°38' E 014°23'0 0.0
2018-Apr-18 01:00N 40°38' E 014°23'0 0.0
2018-Apr-18 00:30N 40°38' E 014°23'0 0.0
2018-Apr-18 00:00N 40°38' E 014°23'0 0.0
2018-Apr-17 23:30N 40°38' E 014°23'0 0.0
2018-Apr-17 23:00N 40°38' E 014°23'0 0.0
2018-Apr-17 22:30N 40°38' E 014°23'0 0.0
2018-Apr-17 21:56N 40°38' E 014°23'0 0.0
2018-Apr-17 21:30N 40°38' E 014°23'0 0.0
2018-Apr-17 21:00N 40°38' E 014°23'0 0.0
2018-Apr-17 20:30N 40°38' E 014°23'0 0.0
2018-Apr-17 20:00N 40°38' E 014°23'0 0.0
2018-Apr-17 19:30N 40°38' E 014°23'0 0.0
2018-Apr-17 19:00N 40°38' E 014°23'0 0.0
2018-Apr-17 18:31N 40°38' E 014°23'0 0.0
2018-Apr-17 18:01N 40°38' E 014°23'0 0.0
2018-Apr-17 17:30N 40°38' E 014°23'1 2.7
2018-Apr-17 17:01N 40°39' E 014°22'1222.8
2018-Apr-17 16:28N 40°50' E 014°15'0 0.2
2018-Apr-17 16:00N 40°50' E 014°15'1 1.4
2018-Apr-17 15:30N 40°50' E 014°16'1020.6
2018-Apr-17 15:00N 40°40' E 014°17'711.8
2018-Apr-17 14:27N 40°33' E 014°14'1022.7
2018-Apr-17 14:00N 40°43' E 014°19'816.1
2018-Apr-17 13:30N 40°50' E 014°15'0 0.0
2018-Apr-17 12:59N 40°50' E 014°15'1 2.8
2018-Apr-17 12:30N 40°50' E 014°17'1325.3
2018-Apr-17 12:01N 40°37' E 014°16'4 7.7
2018-Apr-17 11:30N 40°33' E 014°14'0 0.0
2018-Apr-17 10:27N 40°33' E 014°14'1022.4
2018-Apr-17 10:01N 40°43' E 014°19'815.8
2018-Apr-17 09:30N 40°50' E 014°15'816.6
2018-Apr-17 09:01N 40°42' E 014°17'917.6
2018-Apr-17 08:30N 40°33' E 014°14'918.6
2018-Apr-17 08:01N 40°42' E 014°18'9 9.0
2018-Apr-17 07:03N 40°50' E 014°15'0 0.0
2018-Apr-17 06:50N 40°50' E 014°15'0 0.0
2018-Apr-17 06:29N 40°50' E 014°15'0 0.2
2018-Apr-17 05:58N 40°50' E 014°15'1123.4
2018-Apr-17 05:31N 40°41' E 014°22'3 5.8
2018-Apr-17 05:00N 40°38' E 014°23'0 0.0
2018-Apr-17 04:30N 40°38' E 014°23'0 0.0
2018-Apr-17 04:00N 40°38' E 014°23'0 0.0
2018-Apr-17 03:30N 40°38' E 014°23'0 0.0
2018-Apr-17 03:00N 40°38' E 014°23'0 0.0
2018-Apr-17 02:30N 40°38' E 014°23'0 0.0
2018-Apr-17 02:00N 40°38' E 014°23'0 0.0
2018-Apr-17 01:31N 40°38' E 014°23'0 0.0
2018-Apr-17 01:00N 40°38' E 014°23'0 0.0
2018-Apr-17 00:30N 40°38' E 014°23'0 0.0
2018-Apr-17 00:00N 40°38' E 014°23'0 0.0
2018-Apr-16 23:30N 40°38' E 014°23'0 0.0
2018-Apr-16 23:00N 40°38' E 014°23'0 0.0
2018-Apr-16 22:30N 40°38' E 014°23'0 0.0
2018-Apr-16 22:00N 40°38' E 014°23'0 0.0
2018-Apr-16 21:30N 40°38' E 014°23'0 0.0
2018-Apr-16 21:00N 40°38' E 014°23'0 0.0
2018-Apr-16 20:30N 40°38' E 014°23'0 0.0
2018-Apr-16 20:00N 40°38' E 014°23'0 0.0
2018-Apr-16 19:30N 40°38' E 014°23'0 0.0
2018-Apr-16 19:00N 40°38' E 014°23'0 0.0
2018-Apr-16 18:30N 40°38' E 014°23'0 0.0
2018-Apr-16 18:00N 40°38' E 014°23'0 0.0
2018-Apr-16 17:30N 40°38' E 014°23'1 1.4
2018-Apr-16 17:01N 40°39' E 014°23'1324.3
2018-Apr-16 16:29N 40°50' E 014°16'0 0.3
2018-Apr-16 15:28N 40°50' E 014°16'920.8
2018-Apr-16 15:00N 40°41' E 014°17'712.4
2018-Apr-16 14:25N 40°33' E 014°15'1023.5
2018-Apr-16 14:00N 40°43' E 014°16'7 6.6
2018-Apr-16 12:54N 40°50' E 014°15'0 1.0
2018-Apr-16 12:28N 40°50' E 014°16'1021.5
2018-Apr-16 12:00N 40°40' E 014°16'713.8
2018-Apr-16 11:30N 40°33' E 014°14'0 0.0
2018-Apr-16 11:00N 40°33' E 014°14'0 0.0
2018-Apr-16 10:30N 40°33' E 014°14'918.5
2018-Apr-16 10:00N 40°43' E 014°16'811.5
2018-Apr-16 09:21N 40°50' E 014°16'721.3
2018-Apr-16 09:01N 40°43' E 014°16'1019.0
2018-Apr-16 08:30N 40°33' E 014°14'816.8
2018-Apr-16 08:01N 40°42' E 014°16'914.5
2018-Apr-16 07:25N 40°50' E 014°15'0 0.0
2018-Apr-16 06:58N 40°50' E 014°15'0 0.0
2018-Apr-16 06:28N 40°50' E 014°15'0 0.0
2018-Apr-16 06:00N 40°50' E 014°15'1020.3
2018-Apr-16 05:31N 40°41' E 014°21'3 6.9
2018-Apr-16 05:00N 40°38' E 014°23'0 0.0
2018-Apr-16 04:30N 40°38' E 014°23'0 0.0
2018-Apr-16 04:00N 40°38' E 014°23'0 0.0
2018-Apr-16 03:30N 40°38' E 014°23'0 0.0
2018-Apr-16 03:00N 40°38' E 014°23'0 0.0
2018-Apr-16 02:30N 40°38' E 014°23'0 0.0
2018-Apr-16 02:00N 40°38' E 014°23'0 0.0
2018-Apr-16 01:30N 40°38' E 014°23'0 0.0
2018-Apr-16 01:00N 40°38' E 014°23'0 0.0
2018-Apr-16 00:30N 40°38' E 014°23'0 0.0
2018-Apr-16 00:00N 40°38' E 014°23'0 0.0
2018-Apr-15 23:30N 40°38' E 014°23'0 0.0
2018-Apr-15 23:00N 40°38' E 014°23'0 0.0
2018-Apr-15 22:30N 40°38' E 014°23'0 0.0
2018-Apr-15 22:00N 40°38' E 014°23'0 0.0
2018-Apr-15 21:30N 40°38' E 014°23'0 0.0
2018-Apr-15 21:00N 40°38' E 014°23'0 0.0
2018-Apr-15 20:30N 40°38' E 014°23'0 0.0
2018-Apr-15 20:00N 40°38' E 014°23'0 0.0
2018-Apr-15 19:30N 40°38' E 014°23'0 0.0
2018-Apr-15 19:00N 40°38' E 014°23'0 0.0
2018-Apr-15 18:30N 40°38' E 014°23'0 0.0
2018-Apr-15 18:00N 40°38' E 014°23'0 0.0
2018-Apr-15 17:30N 40°38' E 014°23'0 0.3
2018-Apr-15 17:01N 40°38' E 014°23'1326.1
2018-Apr-15 16:30N 40°50' E 014°16'1 1.5
2018-Apr-15 15:59N 40°50' E 014°15'1 0.9
2018-Apr-15 15:23N 40°50' E 014°16'719.4
2018-Apr-15 15:00N 40°43' E 014°16'913.0
2018-Apr-15 14:17N 40°33' E 014°14'0 0.0
2018-Apr-15 13:54N 40°33' E 014°14'1 2.6
2018-Apr-15 13:31N 40°34' E 014°15'1325.2
2018-Apr-15 13:00N 40°47' E 014°17'3 6.7
2018-Apr-15 12:30N 40°50' E 014°16'1223.6
2018-Apr-15 12:00N 40°38' E 014°16'5 8.8
2018-Apr-15 11:27N 40°33' E 014°14'0 0.0
2018-Apr-15 10:58N 40°33' E 014°14'0 0.0
2018-Apr-15 10:30N 40°33' E 014°14'0 0.0
2018-Apr-15 09:56N 40°33' E 014°14'0 0.4
2018-Apr-15 09:30N 40°33' E 014°15'1122.4
2018-Apr-15 09:00N 40°44' E 014°17'612.5
2018-Apr-15 08:30N 40°50' E 014°15'1020.2
2018-Apr-15 08:00N 40°40' E 014°17'714.0
2018-Apr-15 07:30N 40°33' E 014°15'918.4
2018-Apr-15 07:01N 40°42' E 014°17'815.2
2018-Apr-15 06:29N 40°50' E 014°15'0 0.0
2018-Apr-15 06:00N 40°50' E 014°15'1021.2
2018-Apr-15 05:31N 40°41' E 014°21'3 6.5
2018-Apr-15 05:00N 40°38' E 014°23'0 0.0
2018-Apr-15 04:30N 40°38' E 014°23'0 0.0
2018-Apr-15 04:00N 40°38' E 014°23'0 0.0
2018-Apr-15 03:30N 40°38' E 014°23'0 0.0
2018-Apr-15 03:00N 40°38' E 014°23'0 0.0
2018-Apr-15 02:30N 40°38' E 014°23'0 0.0
2018-Apr-15 02:00N 40°38' E 014°23'0 0.0
2018-Apr-15 01:30N 40°38' E 014°23'0 0.0
2018-Apr-15 01:00N 40°38' E 014°23'0 0.0
2018-Apr-15 00:30N 40°38' E 014°23'0 0.0
2018-Apr-15 00:00N 40°38' E 014°23'0 0.0
2018-Apr-14 23:30N 40°38' E 014°23'0 0.0
2018-Apr-14 23:00N 40°38' E 014°23'0 0.0
2018-Apr-14 22:29N 40°38' E 014°23'0 0.0
2018-Apr-14 22:00N 40°38' E 014°23'0 0.0
2018-Apr-14 21:30N 40°38' E 014°23'0 0.0
2018-Apr-14 21:00N 40°38' E 014°23'0 0.0
2018-Apr-14 20:30N 40°38' E 014°23'0 0.0
2018-Apr-14 20:00N 40°38' E 014°23'0 0.0
2018-Apr-14 19:30N 40°38' E 014°23'0 0.0
2018-Apr-14 19:00N 40°38' E 014°23'0 0.0
2018-Apr-14 18:30N 40°38' E 014°23'0 0.0
2018-Apr-14 18:00N 40°38' E 014°23'0 0.0
2018-Apr-14 17:30N 40°38' E 014°23'2 3.6
2018-Apr-14 17:01N 40°40' E 014°22'1222.7
2018-Apr-14 16:29N 40°50' E 014°15'0 0.1
2018-Apr-14 15:58N 40°50' E 014°15'0 0.3
2018-Apr-14 15:30N 40°50' E 014°15'918.2
2018-Apr-14 15:01N 40°41' E 014°17'813.6
2018-Apr-14 14:25N 40°33' E 014°14'1023.3
2018-Apr-14 14:01N 40°43' E 014°16'714.3
2018-Apr-14 13:29N 40°50' E 014°15'0 0.0
2018-Apr-14 12:56N 40°50' E 014°15'0 0.2
2018-Apr-14 12:30N 40°50' E 014°15'1020.2
2018-Apr-14 12:01N 40°40' E 014°16'7 4.7
2018-Apr-14 10:30N 40°33' E 014°14'1121.5
2018-Apr-14 10:00N 40°44' E 014°17'611.3
2018-Apr-14 09:27N 40°50' E 014°15'817.5
2018-Apr-14 09:00N 40°43' E 014°17'7 4.4
2018-Apr-14 07:18N 40°35' E 014°16'725.0
2018-Apr-14 07:00N 40°43' E 014°17'814.8
2018-Apr-14 06:30N 40°50' E 014°15'0 0.0
2018-Apr-14 06:00N 40°50' E 014°15'  

Dump ship's entire track history